Time;durP1;ratioP1;P1;durP2;ratioP2;P2;SDS_P1;SDS_P2;PMS_P1;PMS_P2;Temp;Humidity;BMP_temperature;BMP_pressure;BME280_temperature;BME280_humidity;BME280_pressure;Samples;Min_cycle;Max_cycle;Signal;HPM_P1;HPM_P2
2022/06/05 00:00:24;;;;;;;2.50;2.03;;;14.70;68.00;;;;;;5012525;28;20033;-69
2022/06/05 00:03:05;;;;;;;3.65;1.90;;;14.70;67.40;;;;;;5015952;28;20648;-69
2022/06/05 00:05:43;;;;;;;3.33;2.03;;;14.70;67.40;;;;;;5012072;28;20057;-69
2022/06/05 00:08:24;;;;;;;5.63;2.33;;;14.60;67.90;;;;;;5013485;28;20119;-69
2022/06/05 00:10:56;;;;;;;2.00;1.90;;;14.60;67.90;;;;;;5018194;28;20101;-70
2022/06/05 00:13:34;;;;;;;3.70;2.22;;;14.50;68.50;;;;;;5026913;28;20128;-69
2022/06/05 00:16:00;;;;;;;3.40;2.10;;;14.50;68.90;;;;;;5011300;28;20049;-69
2022/06/05 00:18:25;;;;;;;2.03;1.83;;;14.40;69.20;;;;;;5014276;28;20053;-69
2022/06/05 00:20:51;;;;;;;3.42;2.47;;;14.40;69.30;;;;;;5013121;28;20052;-69
2022/06/05 00:23:17;;;;;;;2.65;1.67;;;14.40;68.00;;;;;;5009273;28;20060;-69
2022/06/05 00:25:58;;;;;;;2.95;2.20;;;14.40;68.60;;;;;;5014939;28;20053;-68
2022/06/05 00:29:09;;;;;;;3.30;2.45;;;14.30;69.00;;;;;;5014502;28;20199;-69
2022/06/05 00:32:09;;;;;;;2.78;1.98;;;14.30;69.10;;;;;;5008301;28;20390;-69
2022/06/05 00:34:35;;;;;;;2.95;2.22;;;14.20;69.60;;;;;;5013551;28;20033;-69
2022/06/05 00:37:01;;;;;;;3.25;2.20;;;14.20;69.80;;;;;;5015470;28;20045;-69
2022/06/05 00:39:30;;;;;;;2.33;2.10;;;14.20;70.10;;;;;;5011470;28;20474;-69
2022/06/05 00:42:06;;;;;;;4.35;2.13;;;14.10;70.40;;;;;;5009571;28;20633;-69
2022/06/05 00:44:36;;;;;;;;;;;14.10;70.10;;;;;;5017566;28;20033;-69
2022/06/05 00:47:04;;;;;;;2.53;2.00;;;14.10;70.60;;;;;;5014076;28;19970;-69
2022/06/05 00:49:38;;;;;;;2.88;2.33;;;14.00;70.70;;;;;;5010018;28;20033;-69
2022/06/05 00:52:08;;;;;;;4.03;2.33;;;14.00;70.90;;;;;;5015828;28;20477;-70
2022/06/05 00:54:34;;;;;;;3.42;2.20;;;14.00;70.90;;;;;;5013822;28;20076;-69
2022/06/05 00:57:00;;;;;;;2.28;2.08;;;13.90;70.80;;;;;;5013470;28;20087;-69
2022/06/05 00:59:27;;;;;;;3.95;2.03;;;13.90;71.00;;;;;;5009997;28;20045;-69
2022/06/05 01:01:53;;;;;;;3.00;2.20;;;13.80;71.30;;;;;;5017985;28;20033;-69
2022/06/05 01:04:20;;;;;;;2.80;2.20;;;13.80;71.80;;;;;;5012957;28;20120;-69
2022/06/05 01:06:46;;;;;;;3.42;2.28;;;13.70;72.00;;;;;;5018511;28;20691;-69
2022/06/05 01:09:12;;;;;;;2.45;2.03;;;13.70;72.40;;;;;;5017206;28;20032;-69
2022/06/05 01:11:48;;;;;;;2.83;2.30;;;13.60;72.80;;;;;;5016159;28;20033;-69
2022/06/05 01:14:32;;;;;;;7.00;2.58;;;13.50;73.10;;;;;;5014225;28;20084;-69
2022/06/05 01:17:56;;;;;;;2.92;2.30;;;13.50;73.50;;;;;;5013586;28;20107;-69
2022/06/05 01:20:51;;;;;;;4.72;2.63;;;13.50;74.00;;;;;;4990299;28;20477;-69
2022/06/05 01:23:35;;;;;;;3.85;2.53;;;13.40;74.30;;;;;;4988789;28;20054;-69
2022/06/05 01:26:27;;;;;;;2.88;2.42;;;13.30;74.50;;;;;;5015225;28;20539;-69
2022/06/05 01:29:06;;;;;;;3.78;2.38;;;13.30;74.80;;;;;;5017514;28;20029;-69
2022/06/05 01:31:44;;;;;;;2.85;2.50;;;13.30;75.10;;;;;;5014184;28;20044;-69
2022/06/05 01:34:24;;;;;;;3.35;2.78;;;13.20;75.60;;;;;;5016289;28;20136;-69
2022/06/05 01:37:00;;;;;;;5.53;2.70;;;13.20;76.10;;;;;;5014259;28;20113;-71
2022/06/05 01:39:34;;;;;;;3.17;2.75;;;13.10;76.50;;;;;;5013274;28;20053;-69
2022/06/05 01:42:06;;;;;;;4.47;2.85;;;13.10;76.90;;;;;;5017869;28;20045;-69
2022/06/05 01:44:56;;;;;;;5.03;3.15;;;13.10;77.80;;;;;;5018384;28;20359;-69
2022/06/05 01:47:27;;;;;;;6.32;3.08;;;13.10;76.80;;;;;;5016641;28;20041;-69
2022/06/05 01:49:56;;;;;;;3.40;2.83;;;13.10;77.10;;;;;;5014703;28;20030;-69
2022/06/05 01:52:44;;;;;;;3.53;2.78;;;13.00;77.50;;;;;;5017096;28;20038;-69
2022/06/05 01:55:12;;;;;;;4.15;3.10;;;12.90;77.80;;;;;;5014449;28;20481;-68
2022/06/05 01:57:38;;;;;;;4.18;2.97;;;12.90;78.30;;;;;;5018376;28;20049;-69
2022/06/05 02:00:11;;;;;;;3.50;3.10;;;12.80;79.00;;;;;;5023564;28;20025;-69
2022/06/05 02:02:44;;;;;;;3.95;3.20;;;12.70;79.90;;;;;;5019876;28;20095;-69
2022/06/05 02:05:20;;;;;;;4.00;3.05;;;12.70;80.50;;;;;;5019344;28;20041;-69
2022/06/05 02:07:54;;;;;;;4.40;3.67;;;12.70;80.60;;;;;;5029434;28;20068;-69
2022/06/05 02:10:49;;;;;;;6.32;3.33;;;12.70;79.80;;;;;;5019743;28;20088;-69
2022/06/05 02:13:15;;;;;;;3.83;3.00;;;12.60;79.90;;;;;;5018518;28;20128;-69
2022/06/05 02:15:40;;;;;;;4.38;3.38;;;12.60;80.40;;;;;;5020146;28;20124;-69
2022/06/05 02:18:06;;;;;;;7.22;4.22;;;12.60;80.80;;;;;;5018948;28;20041;-69
2022/06/05 02:20:34;;;;;;;6.97;3.42;;;12.50;80.80;;;;;;5021842;28;20083;-69
2022/06/05 02:23:00;;;;;;;4.20;3.25;;;12.50;80.70;;;;;;5022207;28;20421;-69
2022/06/05 02:25:26;;;;;;;4.63;3.85;;;12.40;81.20;;;;;;5017795;28;20701;-71
2022/06/05 02:27:59;;;;;;;4.88;3.72;;;12.40;81.70;;;;;;5018535;28;20038;-69
2022/06/05 02:30:33;;;;;;;5.82;3.90;;;12.30;82.20;;;;;;5022773;28;20040;-71
2022/06/05 02:33:08;;;;;;;7.28;3.78;;;12.30;82.50;;;;;;5018420;28;20029;-69
2022/06/05 02:35:44;;;;;;;5.28;3.80;;;12.30;82.80;;;;;;5020362;28;20621;-69
2022/06/05 02:38:31;;;;;;;4.72;3.70;;;12.30;83.70;;;;;;5020159;28;20073;-69
2022/06/05 02:41:09;;;;;;;5.30;4.00;;;12.30;84.00;;;;;;5014376;28;20069;-69
2022/06/05 02:43:38;;;;;;;5.97;4.22;;;12.30;84.50;;;;;;5016448;28;20459;-69
2022/06/05 02:46:04;;;;;;;5.57;4.57;;;12.40;85.00;;;;;;5018582;28;20117;-69
2022/06/05 02:48:42;;;;;;;7.68;4.10;;;12.40;85.40;;;;;;5017622;28;20030;-71
2022/06/05 02:51:19;;;;;;;5.15;3.92;;;12.40;84.90;;;;;;5019636;28;20528;-69
2022/06/05 02:53:46;;;;;;;4.65;3.78;;;12.50;84.50;;;;;;5019939;28;20048;-69
2022/06/05 02:56:12;;;;;;;6.25;4.72;;;12.50;85.00;;;;;;5016998;28;20041;-69
2022/06/05 02:58:37;;;;;;;6.75;4.35;;;12.50;85.90;;;;;;5019071;28;20037;-69
2022/06/05 03:03:48;;;;;;;8.75;4.60;;;12.60;86.10;;;;;;5013276;28;20167;-69
2022/06/05 03:06:15;;;;;;;5.38;4.35;;;12.70;86.00;;;;;;5018554;28;20284;-69
2022/06/05 03:08:40;;;;;;;6.53;4.57;;;12.70;86.10;;;;;;5015026;28;20537;-69
2022/06/05 03:11:06;;;;;;;7.68;4.75;;;12.70;86.20;;;;;;5015103;28;20111;-69
2022/06/05 03:13:32;;;;;;;5.78;4.20;;;12.70;86.70;;;;;;5020968;28;20036;-69
2022/06/05 03:15:58;;;;;;;6.03;4.07;;;12.70;86.70;;;;;;5013526;28;20049;-68
2022/06/05 03:18:24;;;;;;;5.32;3.88;;;12.70;86.50;;;;;;5014800;28;20420;-69
2022/06/05 03:20:54;;;;;;;5.78;4.45;;;12.70;86.40;;;;;;5012395;28;20598;-69
2022/06/05 03:23:19;;;;;;;5.63;4.40;;;12.80;86.20;;;;;;5016020;28;20044;-69
2022/06/05 03:25:45;;;;;;;5.72;3.92;;;12.70;86.00;;;;;;5015960;28;20029;-69
2022/06/05 03:28:11;;;;;;;5.15;3.90;;;12.80;85.70;;;;;;5016078;28;20043;-71
2022/06/05 03:30:39;;;;;;;6.00;4.45;;;12.70;85.80;;;;;;5014941;28;20049;-71
2022/06/05 03:33:05;;;;;;;5.65;4.10;;;12.70;85.80;;;;;;5013942;28;20030;-71
2022/06/05 03:35:30;;;;;;;7.13;4.35;;;12.70;85.80;;;;;;5013557;28;20045;-71
2022/06/05 03:37:56;;;;;;;4.75;3.85;;;12.70;85.80;;;;;;5007971;28;20037;-71
2022/06/05 03:40:22;;;;;;;6.35;3.75;;;12.70;85.90;;;;;;5017899;28;20061;-71
2022/06/05 03:42:49;;;;;;;4.63;3.88;;;12.60;85.90;;;;;;5013708;28;20829;-71
2022/06/05 03:45:16;;;;;;;5.88;4.30;;;12.70;86.00;;;;;;5018756;28;20168;-71
2022/06/05 03:47:43;;;;;;;7.25;4.72;;;12.70;86.30;;;;;;5019548;28;20030;-71
2022/06/05 03:50:10;;;;;;;5.95;4.00;;;12.70;86.60;;;;;;5021741;28;20033;-71
2022/06/05 03:52:36;;;;;;;6.07;4.40;;;12.70;86.50;;;;;;5018192;28;20508;-71
2022/06/05 03:55:01;;;;;;;7.75;4.35;;;12.70;86.60;;;;;;5017286;28;20042;-71
2022/06/05 03:57:27;;;;;;;9.02;4.72;;;12.70;86.60;;;;;;5020637;28;20037;-69
2022/06/05 03:59:53;;;;;;;6.78;4.70;;;12.70;86.80;;;;;;5013553;28;20030;-71
2022/06/05 04:02:19;;;;;;;7.97;5.22;;;12.70;87.10;;;;;;5016280;28;20965;-71
2022/06/05 04:04:45;;;;;;;6.55;5.07;;;12.60;87.30;;;;;;5015354;28;20124;-71
2022/06/05 04:07:11;;;;;;;7.80;5.28;;;12.70;87.80;;;;;;5020726;28;20022;-70
2022/06/05 04:09:37;;;;;;;9.90;4.78;;;12.70;88.10;;;;;;5014071;28;20021;-71
2022/06/05 04:12:03;;;;;;;8.50;5.82;;;12.70;88.90;;;;;;5017165;28;20489;-71
2022/06/05 04:14:29;;;;;;;5.85;4.75;;;12.70;89.60;;;;;;5017816;28;20030;-68
2022/06/05 04:16:55;;;;;;;8.88;5.03;;;12.80;89.50;;;;;;5015423;28;20039;-71
2022/06/05 04:19:21;;;;;;;6.07;4.57;;;12.90;89.60;;;;;;5018743;28;20033;-71
2022/06/05 04:21:47;;;;;;;6.57;4.20;;;12.90;88.80;;;;;;5013961;28;20786;-71
2022/06/05 04:24:14;;;;;;;7.25;4.53;;;13.00;88.50;;;;;;5018857;28;20029;-68
2022/06/05 04:26:41;;;;;;;6.82;4.63;;;13.00;88.50;;;;;;5015568;28;20044;-71
2022/06/05 04:29:07;;;;;;;6.35;4.78;;;13.10;88.60;;;;;;5016455;28;20037;-71
2022/06/05 04:31:36;;;;;;;6.47;4.53;;;13.10;88.80;;;;;;5018712;28;20052;-71
2022/06/05 04:34:06;;;;;;;10.50;5.95;;;13.10;89.20;;;;;;5017115;28;20464;-71
2022/06/05 04:36:32;;;;;;;8.00;5.13;;;13.20;89.00;;;;;;5018443;28;20689;-71
2022/06/05 04:38:58;;;;;;;8.73;4.82;;;13.30;88.90;;;;;;5029927;28;20492;-71
2022/06/05 04:41:24;;;;;;;6.07;4.80;;;13.30;88.90;;;;;;5016283;28;20038;-71
2022/06/05 04:43:51;;;;;;;6.97;4.75;;;13.40;89.00;;;;;;5013237;28;20033;-71
2022/06/05 04:46:19;;;;;;;6.50;4.80;;;13.40;88.90;;;;;;5013852;28;20033;-68
2022/06/05 04:48:44;;;;;;;6.40;4.38;;;13.50;88.80;;;;;;5012182;28;20041;-69
2022/06/05 04:51:15;;;;;;;6.30;4.22;;;13.60;88.70;;;;;;5018268;28;20037;-69
2022/06/05 04:53:42;;;;;;;5.60;4.55;;;13.70;88.40;;;;;;5020015;28;20033;-69
2022/06/05 04:56:10;;;;;;;6.55;4.60;;;13.80;88.30;;;;;;5014760;28;20034;-69
2022/06/05 04:58:37;;;;;;;5.63;4.15;;;13.90;88.20;;;;;;5009605;28;20052;-69
2022/06/05 05:01:23;;;;;;;7.05;4.45;;;14.00;88.10;;;;;;5018197;28;20028;-69
2022/06/05 05:03:55;;;;;;;7.03;4.57;;;14.10;88.00;;;;;;5016760;28;20140;-69
2022/06/05 05:06:21;;;;;;;7.00;4.30;;;14.20;87.80;;;;;;5017333;28;20045;-69
2022/06/05 05:08:47;;;;;;;6.13;4.38;;;14.30;87.60;;;;;;5013562;28;20036;-69
2022/06/05 05:11:14;;;;;;;6.43;4.95;;;14.40;87.10;;;;;;5013257;28;20452;-69
2022/06/05 05:13:41;;;;;;;5.60;4.13;;;14.50;86.40;;;;;;5015372;28;20079;-69
2022/06/05 05:16:07;;;;;;;6.13;4.22;;;14.70;85.10;;;;;;5012994;28;20062;-69
2022/06/05 05:18:33;;;;;;;5.63;4.15;;;15.00;85.00;;;;;;5013720;28;20144;-69
2022/06/05 05:21:14;;;;;;;7.45;4.60;;;15.40;84.00;;;;;;5017893;28;20125;-69
2022/06/05 05:23:41;;;;;;;6.53;4.38;;;15.60;82.80;;;;;;5016761;28;20744;-70
2022/06/05 05:26:19;;;;;;;5.35;4.00;;;15.80;81.20;;;;;;5013374;28;20045;-70
2022/06/05 05:28:45;;;;;;;5.05;4.15;;;16.30;78.80;;;;;;5014495;28;20030;-69
2022/06/05 05:31:15;;;;;;;4.18;3.42;;;16.50;77.00;;;;;;5015809;28;20687;-70
2022/06/05 05:33:41;;;;;;;5.85;3.90;;;16.50;76.70;;;;;;5016385;28;20033;-69
2022/06/05 05:36:08;;;;;;;5.00;3.60;;;16.50;76.60;;;;;;5016278;28;20090;-69
2022/06/05 05:38:35;;;;;;;4.22;3.70;;;16.50;75.70;;;;;;5015689;28;20894;-70
2022/06/05 05:43:45;;;;;;;4.43;3.10;;;16.50;75.00;;;;;;5020109;28;20033;-69
2022/06/05 05:46:13;;;;;;;4.03;3.08;;;16.60;74.20;;;;;;5016326;28;20044;-69
2022/06/05 05:48:39;;;;;;;3.45;2.90;;;16.70;72.00;;;;;;5018136;28;20147;-69
2022/06/05 05:51:15;;;;;;;3.97;3.17;;;16.70;73.00;;;;;;5012622;28;20041;-69
2022/06/05 05:53:41;;;;;;;5.97;2.90;;;16.80;72.20;;;;;;5017166;28;20751;-69
2022/06/05 05:56:09;;;;;;;3.88;2.90;;;16.90;70.40;;;;;;5016563;28;20630;-69
2022/06/05 05:58:35;;;;;;;6.05;3.33;;;17.10;70.30;;;;;;5014123;28;20045;-69
2022/06/05 06:01:04;;;;;;;4.05;3.00;;;17.10;70.60;;;;;;5018818;28;20037;-69
2022/06/05 06:03:29;;;;;;;8.07;2.88;;;17.20;69.20;;;;;;5021214;28;20029;-69
2022/06/05 06:05:58;;;;;;;4.78;3.20;;;17.40;69.20;;;;;;5017065;28;20463;-69
2022/06/05 06:08:24;;;;;;;3.17;2.85;;;17.50;65.50;;;;;;5020566;28;20049;-69
2022/06/05 06:10:50;;;;;;;4.55;2.67;;;17.80;65.90;;;;;;5022618;28;20035;-69
2022/06/05 06:13:16;;;;;;;3.95;2.90;;;18.00;66.20;;;;;;5018609;28;20393;-69
2022/06/05 06:15:41;;;;;;;2.90;2.63;;;18.30;64.20;;;;;;5019416;28;20060;-69
2022/06/05 06:18:07;;;;;;;3.60;2.75;;;18.70;62.50;;;;;;5019025;28;20037;-70
2022/06/05 06:20:33;;;;;;;3.92;3.00;;;18.80;62.70;;;;;;5013611;28;20601;-70
2022/06/05 06:22:59;;;;;;;4.07;2.80;;;18.70;61.60;;;;;;5020841;28;20033;-70
2022/06/05 06:25:24;;;;;;;6.30;2.78;;;18.70;62.80;;;;;;5022306;28;20504;-69
2022/06/05 06:27:50;;;;;;;4.20;2.95;;;18.70;62.10;;;;;;5021212;28;20048;-70
2022/06/05 06:30:16;;;;;;;5.35;2.95;;;18.80;62.00;;;;;;5013911;28;20053;-69
2022/06/05 06:32:42;;;;;;;4.15;2.90;;;18.80;62.70;;;;;;5013509;28;20034;-69
2022/06/05 06:35:08;;;;;;;4.13;2.97;;;18.90;61.90;;;;;;5016762;28;20049;-69
2022/06/05 06:37:34;;;;;;;4.97;3.00;;;19.00;61.60;;;;;;5018917;28;20073;-69
2022/06/05 06:39:59;;;;;;;5.03;3.28;;;19.10;61.00;;;;;;5015386;28;20739;-70
2022/06/05 06:42:25;;;;;;;4.72;2.95;;;19.10;61.00;;;;;;5021805;28;20082;-70
2022/06/05 06:44:52;;;;;;;7.07;3.33;;;19.20;61.00;;;;;;5019700;28;20033;-70
2022/06/05 06:47:18;;;;;;;4.18;3.28;;;19.20;61.40;;;;;;5018921;28;20030;-70
2022/06/05 06:49:43;;;;;;;3.97;3.10;;;19.40;61.00;;;;;;5015920;28;20029;-70
2022/06/05 06:52:09;;;;;;;6.97;3.53;;;19.60;60.40;;;;;;5016337;28;20037;-69
2022/06/05 06:54:35;;;;;;;4.43;3.08;;;19.80;60.00;;;;;;5015782;28;20124;-70
2022/06/05 06:57:01;;;;;;;3.97;3.22;;;19.90;59.70;;;;;;5014143;28;20598;-69
2022/06/05 06:59:28;;;;;;;3.97;2.88;;;20.00;59.50;;;;;;5015093;28;20034;-70
2022/06/05 07:01:54;;;;;;;3.92;2.88;;;20.10;59.40;;;;;;5016536;28;20448;-70
2022/06/05 07:04:21;;;;;;;4.43;3.30;;;20.20;59.30;;;;;;5019092;28;20033;-70
2022/06/05 07:06:48;;;;;;;5.70;3.38;;;20.30;59.00;;;;;;5018098;28;20041;-69
2022/06/05 07:09:14;;;;;;;5.22;3.00;;;20.40;58.70;;;;;;5017962;28;20397;-70
2022/06/05 07:11:43;;;;;;;4.90;3.35;;;20.50;57.90;;;;;;5017149;28;20059;-70
2022/06/05 07:14:09;;;;;;;3.30;3.00;;;20.50;57.70;;;;;;5021740;28;20444;-70
2022/06/05 07:16:36;;;;;;;5.28;3.25;;;20.50;58.50;;;;;;5019705;28;20041;-70
2022/06/05 07:19:03;;;;;;;3.53;2.90;;;20.60;58.10;;;;;;5020689;28;20105;-70
2022/06/05 07:21:29;;;;;;;3.50;3.20;;;20.70;58.10;;;;;;5013282;28;20088;-70
2022/06/05 07:23:55;;;;;;;4.75;3.30;;;20.90;58.40;;;;;;5016865;28;20030;-70
2022/06/05 07:26:24;;;;;;;3.53;2.85;;;21.00;57.90;;;;;;5018589;28;20148;-70
2022/06/05 07:28:50;;;;;;;3.88;2.80;;;21.10;57.30;;;;;;5021482;28;20226;-70
2022/06/05 07:31:17;;;;;;;4.97;3.70;;;21.20;57.10;;;;;;5019181;28;20037;-70
2022/06/05 07:33:44;;;;;;;3.20;2.90;;;21.30;56.80;;;;;;5019313;28;20096;-70
2022/06/05 07:36:13;;;;;;;6.40;3.45;;;21.40;57.40;;;;;;5018139;28;20120;-70
2022/06/05 07:38:40;;;;;;;5.00;3.28;;;21.40;56.50;;;;;;5017649;28;20041;-70
2022/06/05 07:41:14;;;;;;;4.07;2.95;;;21.50;56.70;;;;;;5016968;28;20042;-70
2022/06/05 07:43:40;;;;;;;3.17;2.85;;;21.60;56.60;;;;;;5011982;28;20033;-66
2022/06/05 07:46:06;;;;;;;7.00;3.25;;;21.70;56.50;;;;;;5019207;28;20511;-70
2022/06/05 07:48:32;;;;;;;4.30;2.58;;;21.80;55.40;;;;;;5016856;28;20033;-71
2022/06/05 07:56:34;;;;;;;6.03;3.15;;;22.00;53.10;;;;;;5014440;28;20112;-71
2022/06/05 07:59:00;;;;;;;5.18;3.53;;;22.20;54.50;;;;;;5013999;28;20056;-69
2022/06/05 08:01:26;;;;;;;3.97;3.20;;;22.30;53.70;;;;;;5017235;28;20047;-69
2022/06/05 08:03:52;;;;;;;6.28;2.97;;;22.40;53.20;;;;;;5017011;28;20026;-70
2022/06/05 08:06:18;;;;;;;4.82;3.03;;;22.60;52.50;;;;;;5018610;28;20025;-70
2022/06/05 08:08:45;;;;;;;5.65;3.05;;;22.60;52.80;;;;;;5013891;28;20055;-72
2022/06/05 08:11:10;;;;;;;3.22;2.85;;;22.80;52.50;;;;;;5016492;28;20029;-71
2022/06/05 08:13:36;;;;;;;3.00;2.70;;;22.90;51.90;;;;;;5017691;28;20026;-69
2022/06/05 08:16:02;;;;;;;5.13;2.70;;;23.10;51.50;;;;;;5015729;28;20865;-69
2022/06/05 08:18:28;;;;;;;3.17;2.75;;;23.20;50.10;;;;;;5018746;28;20069;-69
2022/06/05 08:20:54;;;;;;;2.67;2.47;;;23.30;50.40;;;;;;5012897;28;20113;-70
2022/06/05 08:23:20;;;;;;;4.90;2.70;;;23.40;50.00;;;;;;5017552;28;20059;-70
2022/06/05 08:25:46;;;;;;;4.35;2.72;;;23.50;49.60;;;;;;5012823;28;20026;-71
2022/06/05 08:28:12;;;;;;;3.97;2.60;;;23.60;49.80;;;;;;5013880;28;20083;-71
2022/06/05 08:30:38;;;;;;;4.72;2.65;;;23.60;49.20;;;;;;5016855;28;20803;-69
2022/06/05 08:33:05;;;;;;;3.95;2.67;;;23.70;49.10;;;;;;5013144;28;20033;-70
2022/06/05 08:35:31;;;;;;;4.65;2.63;;;23.70;48.90;;;;;;5019293;28;20499;-70
2022/06/05 08:43:46;;;;;;;3.83;2.58;;;23.90;48.60;;;;;;5013794;28;20111;-70
2022/06/05 08:46:27;;;;;;;3.90;2.30;;;24.10;45.80;;;;;;5016770;28;20045;-70
2022/06/05 08:48:57;;;;;;;3.05;2.35;;;24.10;45.90;;;;;;5012700;28;20441;-70
2022/06/05 08:51:30;;;;;;;3.20;2.20;;;24.30;47.00;;;;;;5017605;28;20079;-71
2022/06/05 08:54:03;;;;;;;3.55;2.80;;;24.40;45.30;;;;;;5013581;28;20022;-70
2022/06/05 08:56:37;;;;;;;4.70;2.75;;;24.50;46.60;;;;;;5013360;28;20037;-70
2022/06/05 08:59:29;;;;;;;4.13;2.55;;;24.60;45.80;;;;;;5011827;28;20187;-66
2022/06/05 09:02:00;;;;;;;2.83;2.55;;;24.70;45.60;;;;;;5013236;28;20161;-69
2022/06/05 09:04:53;;;;;;;3.13;2.15;;;24.70;45.40;;;;;;5015262;28;20036;-69
2022/06/05 09:07:25;;;;;;;3.95;2.90;;;24.70;45.20;;;;;;5016563;28;20048;-69
2022/06/05 09:09:59;;;;;;;3.08;2.35;;;24.80;46.20;;;;;;5012640;28;20030;-69
2022/06/05 09:12:35;;;;;;;3.10;2.65;;;24.90;45.50;;;;;;5015714;28;20029;-67
2022/06/05 09:15:21;;;;;;;4.13;2.50;;;25.10;46.10;;;;;;5015377;28;20041;-72
2022/06/05 09:17:59;;;;;;;4.45;2.45;;;25.30;45.70;;;;;;5011705;28;20409;-73
2022/06/05 09:20:53;;;;;;;4.45;2.78;;;25.40;45.80;;;;;;5015360;28;20103;-72
2022/06/05 09:23:40;;;;;;;3.20;2.38;;;25.40;44.80;;;;;;5010313;28;20049;-73
2022/06/05 09:26:16;;;;;;;3.35;2.67;;;25.50;44.80;;;;;;5013438;28;20034;-73
2022/06/05 09:28:58;;;;;;;;;;;25.50;44.60;;;;;;5012977;28;20780;-71
2022/06/05 09:31:33;;;;;;;2.53;2.30;;;25.50;43.90;;;;;;5015155;28;19913;-71
2022/06/05 09:34:13;;;;;;;4.33;2.70;;;25.60;43.90;;;;;;5008089;28;20521;-71
2022/06/05 09:36:46;;;;;;;3.92;2.90;;;25.80;44.30;;;;;;5016242;28;20280;-72
2022/06/05 09:39:27;;;;;;;2.80;2.30;;;26.00;43.60;;;;;;5020087;28;20033;-71
2022/06/05 09:42:11;;;;;;;3.20;2.20;;;26.00;43.70;;;;;;5016990;28;20635;-72
2022/06/05 09:44:55;;;;;;;3.22;2.60;;;26.20;43.50;;;;;;5014585;28;20072;-71
2022/06/05 09:47:39;;;;;;;7.82;2.65;;;26.10;43.10;;;;;;5018511;28;20041;-73
2022/06/05 09:50:22;;;;;;;2.97;2.20;;;26.10;43.60;;;;;;5016696;28;20133;-71
2022/06/05 09:52:50;;;;;;;3.00;2.42;;;26.20;43.00;;;;;;5014150;28;20037;-72
2022/06/05 09:55:20;;;;;;;3.33;2.67;;;26.30;43.70;;;;;;5017915;28;20043;-71
2022/06/05 10:00:53;;;;;;;3.33;2.40;;;27.10;42.40;;;;;;5015845;28;20033;-70
2022/06/05 10:03:32;;;;;;;5.13;2.65;;;27.30;42.00;;;;;;5018948;28;20550;-72
2022/06/05 10:06:26;;;;;;;3.45;2.17;;;27.30;41.70;;;;;;5016563;28;20037;-72
2022/06/05 10:09:25;;;;;;;2.50;2.30;;;27.10;41.60;;;;;;5011593;28;20026;-72
2022/06/05 10:12:03;;;;;;;2.45;2.13;;;27.10;41.90;;;;;;5018407;28;20052;-72
2022/06/05 10:14:50;;;;;;;2.90;2.45;;;27.30;40.80;;;;;;5015484;28;20121;-72
2022/06/05 10:17:44;;;;;;;5.28;2.38;;;27.20;41.50;;;;;;5016347;28;20516;-71
2022/06/05 10:20:13;;;;;;;4.28;2.53;;;27.00;41.80;;;;;;5015944;28;20026;-71
2022/06/05 10:22:39;;;;;;;6.32;4.50;;;26.80;42.10;;;;;;5013671;28;20862;-66
2022/06/05 10:25:34;;;;;;;6.05;3.72;;;26.90;42.70;;;;;;5014991;28;20123;-65
2022/06/05 10:28:13;;;;;;;4.97;3.47;;;27.40;42.10;;;;;;5010545;28;20164;-66
2022/06/05 10:30:53;;;;;;;7.90;3.80;;;27.60;42.40;;;;;;5018713;28;20040;-65
2022/06/05 10:33:27;;;;;;;5.00;3.38;;;27.80;41.40;;;;;;5015236;28;20558;-65
2022/06/05 10:36:03;;;;;;;7.63;3.90;;;27.80;41.20;;;;;;5019143;28;20034;-65
2022/06/05 10:38:57;;;;;;;7.97;5.53;;;27.70;40.80;;;;;;5017544;28;20080;-65
2022/06/05 10:41:45;;;;;;;7.20;5.00;;;27.60;42.40;;;;;;5016507;28;20501;-64
2022/06/05 10:44:20;;;;;;;5.78;4.68;;;27.30;41.60;;;;;;5013030;28;20509;-64
2022/06/05 10:47:07;;;;;;;6.35;3.40;;;27.10;42.00;;;;;;5017092;28;20389;-64
2022/06/05 10:50:08;;;;;;;6.78;3.25;;;27.00;41.80;;;;;;5017106;28;20068;-65
2022/06/05 10:52:39;;;;;;;3.17;2.42;;;27.30;41.70;;;;;;5020000;28;20611;-65
2022/06/05 10:55:21;;;;;;;4.38;2.90;;;27.60;41.30;;;;;;5016431;28;20080;-64
2022/06/05 10:58:13;;;;;;;3.50;2.80;;;27.60;41.30;;;;;;5016983;28;20104;-64
2022/06/05 11:01:35;;;;;;;4.70;2.50;;;27.10;41.80;;;;;;5014455;28;20850;-64
2022/06/05 11:04:38;;;;;;;2.78;2.50;;;27.10;41.90;;;;;;4997763;28;20045;-62
2022/06/05 11:07:18;;;;;;;3.72;2.53;;;27.00;42.30;;;;;;5004800;28;20041;-64
2022/06/05 11:09:56;;;;;;;5.13;2.50;;;27.00;42.30;;;;;;5015312;28;20044;-63
2022/06/05 11:15:39;;;;;;;2.88;2.00;;;27.30;42.30;;;;;;5014252;28;20034;-62
2022/06/05 11:18:53;;;;;;;3.03;2.50;;;27.40;42.80;;;;;;5017512;28;20037;-64
2022/06/05 11:21:21;;;;;;;4.68;2.53;;;27.60;43.40;;;;;;4999325;28;20072;-65
2022/06/05 11:23:50;;;;;;;6.95;5.10;;;27.70;42.40;;;;;;5016637;28;20132;-65
2022/06/05 11:26:42;;;;;;;3.85;3.33;;;27.60;42.00;;;;;;5013552;28;20033;-64
2022/06/05 11:29:14;;;;;;;5.30;2.42;;;27.60;41.90;;;;;;5017805;28;20037;-65
2022/06/05 11:31:49;;;;;;;3.10;2.80;;;27.60;43.60;;;;;;5012298;28;20044;-65
2022/06/05 11:34:24;;;;;;;4.13;2.90;;;27.40;42.60;;;;;;5016071;28;20048;-63
2022/06/05 11:36:51;;;;;;;;;;;27.30;43.10;;;;;;5015255;28;20041;-64
2022/06/05 11:39:37;;;;;;;4.82;2.80;;;27.30;43.20;;;;;;5013083;28;19920;-64
2022/06/05 11:42:29;;;;;;;2.75;2.55;;;27.50;43.60;;;;;;5017114;28;20040;-64
2022/06/05 11:44:58;;;;;;;4.60;3.08;;;27.50;41.90;;;;;;5015878;28;20044;-64
2022/06/05 11:47:46;;;;;;;3.08;2.60;;;27.70;43.10;;;;;;5013094;28;20064;-64
2022/06/05 11:50:36;;;;;;;4.63;2.80;;;27.70;42.00;;;;;;5012553;28;20022;-64
2022/06/05 11:53:09;;;;;;;5.43;2.70;;;27.60;41.70;;;;;;5015702;28;20390;-64
2022/06/05 11:55:45;;;;;;;3.80;2.63;;;27.70;42.60;;;;;;5014598;28;20057;-64
2022/06/05 11:58:19;;;;;;;3.67;2.80;;;27.70;42.50;;;;;;5015052;28;20029;-64
2022/06/05 12:00:54;;;;;;;4.03;2.80;;;27.70;42.20;;;;;;5011840;28;20126;-64
2022/06/05 12:03:25;;;;;;;;;;;27.70;42.20;;;;;;5020460;28;20103;-64
2022/06/05 12:16:21;;;;;;;3.95;2.45;;;27.90;41.80;;;;;;4758029;22;20246;-64
2022/06/05 12:18:54;;;;;;;3.70;2.92;;;27.80;42.20;;;;;;5011833;28;20040;-64
2022/06/05 12:21:27;;;;;;;3.83;2.70;;;27.90;42.80;;;;;;5014558;28;20064;-65
2022/06/05 12:24:06;;;;;;;3.80;2.50;;;28.00;41.80;;;;;;5013243;28;20033;-65
2022/06/05 12:26:31;;;;;;;3.45;3.03;;;28.10;41.20;;;;;;5015595;28;20048;-65
2022/06/05 12:29:19;;;;;;;3.90;2.65;;;28.20;42.00;;;;;;5008554;28;20501;-65
2022/06/05 12:31:56;;;;;;;4.38;2.75;;;28.40;42.00;;;;;;5015032;28;20036;-65
2022/06/05 12:34:27;;;;;;;5.25;2.90;;;28.40;41.00;;;;;;5011785;28;20101;-65
2022/06/05 12:36:58;;;;;;;5.32;2.90;;;28.40;41.30;;;;;;5011986;28;20115;-65
2022/06/05 12:39:33;;;;;;;6.13;3.15;;;28.50;40.70;;;;;;5015469;28;20041;-63
2022/06/05 12:42:26;;;;;;;3.80;2.35;;;28.50;41.70;;;;;;5012318;28;20813;-64
2022/06/05 12:44:58;;;;;;;3.97;2.80;;;28.50;40.40;;;;;;5015170;28;20408;-64
2022/06/05 12:47:45;;;;;;;4.85;2.70;;;28.40;40.90;;;;;;5014523;28;20120;-64
2022/06/05 12:50:36;;;;;;;3.58;2.63;;;28.50;41.00;;;;;;5011047;28;20029;-64
2022/06/05 12:53:27;;;;;;;3.30;3.00;;;28.70;40.30;;;;;;5015332;28;20114;-65
2022/06/05 12:56:18;;;;;;;3.58;3.17;;;28.70;40.90;;;;;;5011304;28;20037;-65
2022/06/05 12:59:25;;;;;;;3.50;3.10;;;28.70;40.50;;;;;;5016362;28;20037;-65
2022/06/05 13:01:59;;;;;;;;;;;28.60;39.90;;;;;;4981904;28;20046;-64
2022/06/05 13:04:41;;;;;;;3.58;2.75;;;28.70;40.40;;;;;;5013485;28;20651;-66
2022/06/05 13:07:22;;;;;;;6.10;2.80;;;28.60;40.70;;;;;;5008652;28;20566;-62
2022/06/05 13:10:11;;;;;;;4.07;3.17;;;28.60;40.70;;;;;;5011405;28;20041;-67
2022/06/05 13:12:50;;;;;;;3.83;2.72;;;28.50;39.90;;;;;;5019306;28;20030;-67
2022/06/05 13:15:31;;;;;;;6.03;2.90;;;28.40;40.30;;;;;;5014518;28;20102;-67
2022/06/05 13:18:32;;;;;;;3.20;2.67;;;28.30;40.00;;;;;;5012445;28;20034;-67
2022/06/05 13:21:08;;;;;;;3.40;3.10;;;28.30;40.70;;;;;;5006169;28;20050;-67
2022/06/05 13:23:56;;;;;;;5.30;3.30;;;28.50;40.20;;;;;;5012953;28;20123;-67
2022/06/05 13:26:51;;;;;;;5.18;3.30;;;28.50;39.90;;;;;;5015554;28;20045;-67
2022/06/05 13:29:37;;;;;;;3.50;3.08;;;28.50;40.30;;;;;;5016761;28;20034;-67
2022/06/05 13:32:19;;;;;;;3.55;3.03;;;28.50;40.60;;;;;;5013413;28;20092;-67
2022/06/05 13:35:06;;;;;;;3.33;3.03;;;28.60;40.10;;;;;;5015058;28;20113;-68
2022/06/05 13:38:02;;;;;;;5.20;3.20;;;28.90;40.30;;;;;;5013101;28;20030;-67
2022/06/05 13:41:01;;;;;;;3.50;3.05;;;29.00;39.70;;;;;;5016650;28;20139;-67
2022/06/05 13:43:34;;;;;;;3.47;3.03;;;29.00;39.90;;;;;;5011928;28;20044;-67
2022/06/05 13:46:28;;;;;;;3.25;2.95;;;29.10;40.40;;;;;;5014475;28;20071;-66
2022/06/05 13:49:04;;;;;;;5.80;3.05;;;29.10;39.80;;;;;;5016509;28;20055;-67
2022/06/05 13:51:35;;;;;;;3.40;3.10;;;29.20;40.30;;;;;;5014792;28;21697;-68
2022/06/05 13:54:04;;;;;;;4.75;3.15;;;29.40;40.20;;;;;;5012718;28;20037;-67